createdAt,value
2022-11-09T00:01:04.319Z,33.53
2022-11-09T00:03:33.688Z,34.13
2022-11-09T00:06:03.010Z,33.10
2022-11-09T00:08:31.060Z,34.40
2022-11-09T00:11:04.290Z,33.13
2022-11-09T00:13:36.362Z,33.60
2022-11-09T00:16:05.738Z,32.60
2022-11-09T00:18:35.790Z,34.77
2022-11-09T00:21:07.344Z,33.03
2022-11-09T00:23:37.217Z,33.97
2022-11-09T00:26:07.658Z,34.57
2022-11-09T00:28:37.319Z,33.87
2022-11-09T00:31:07.551Z,32.97
2022-11-09T00:33:38.394Z,33.73
2022-11-09T00:36:08.536Z,33.30
2022-11-09T00:38:40.344Z,33.57
2022-11-09T00:41:10.771Z,35.50
2022-11-09T00:43:41.169Z,36.03
2022-11-09T00:46:10.229Z,33.83
2022-11-09T00:48:41.049Z,34.70
2022-11-09T00:51:10.686Z,33.40
2022-11-09T00:53:40.372Z,33.73
2022-11-09T00:56:11.387Z,35.00
2022-11-09T00:58:41.621Z,34.90
2022-11-09T01:01:13.118Z,32.37
2022-11-09T01:03:46.510Z,35.80
2022-11-09T01:06:16.832Z,32.17
2022-11-09T01:08:45.405Z,33.37
2022-11-09T01:11:17.233Z,35.57
2022-11-09T01:13:46.882Z,34.20
2022-11-09T01:16:16.521Z,33.40
2022-11-09T01:18:47.454Z,35.20
2022-11-09T01:21:18.074Z,34.70
2022-11-09T01:23:47.519Z,32.73
2022-11-09T01:26:16.975Z,31.87
2022-11-09T01:28:46.411Z,33.20
2022-11-09T01:31:16.507Z,32.13
2022-11-09T01:33:47.596Z,32.00
2022-11-09T01:36:18.476Z,31.77
2022-11-09T01:38:46.606Z,33.50
2022-11-09T01:41:17.351Z,31.67
2022-11-09T01:43:46.998Z,32.10
2022-11-09T01:46:19.897Z,33.87
2022-11-09T01:48:53.721Z,31.60
2022-11-09T01:51:26.423Z,31.20
2022-11-09T01:54:05.530Z,32.03
2022-11-09T01:56:34.504Z,31.60
2022-11-09T01:59:05.398Z,30.83
2022-11-09T02:01:35.958Z,33.73
2022-11-09T02:04:15.091Z,32.93
2022-11-09T02:06:43.341Z,32.40
2022-11-09T02:09:14.787Z,34.97
2022-11-09T02:11:43.171Z,31.73
2022-11-09T02:14:13.112Z,33.40
2022-11-09T02:16:43.106Z,34.00
2022-11-09T02:19:14.036Z,34.67
2022-11-09T02:21:43.741Z,34.67
2022-11-09T02:24:13.781Z,35.00
2022-11-09T02:26:45.368Z,33.30
2022-11-09T02:29:16.661Z,36.87
2022-11-09T02:31:47.602Z,36.67
2022-11-09T02:34:18.822Z,33.07
2022-11-09T02:36:49.874Z,35.00
2022-11-09T02:39:24.863Z,34.97
2022-11-09T02:42:09.048Z,35.37
2022-11-09T02:44:42.523Z,34.67
2022-11-09T02:47:11.227Z,36.87
2022-11-09T02:49:40.391Z,35.77
2022-11-09T02:52:11.595Z,35.60
2022-11-09T02:54:41.392Z,37.43
2022-11-09T02:57:10.495Z,34.27
2022-11-09T02:59:40.877Z,34.87
2022-11-09T03:02:10.191Z,35.30
2022-11-09T03:04:39.924Z,35.97
2022-11-09T03:07:09.431Z,36.20
2022-11-09T03:09:40.615Z,34.93
2022-11-09T03:12:23.255Z,36.00
2022-11-09T03:14:54.553Z,35.03
2022-11-09T03:17:23.338Z,35.13
2022-11-09T03:19:52.639Z,35.13
2022-11-09T03:22:21.654Z,34.83
2022-11-09T03:24:52.574Z,36.47
2022-11-09T03:27:22.252Z,34.43
2022-11-09T03:29:51.934Z,33.90
2022-11-09T03:32:22.652Z,33.83
2022-11-09T03:34:51.656Z,34.07
2022-11-09T03:37:22.173Z,33.97
2022-11-09T03:39:52.653Z,34.87
2022-11-09T03:42:22.197Z,33.80
2022-11-09T03:44:51.037Z,34.63
2022-11-09T03:47:20.459Z,35.10
2022-11-09T03:49:49.990Z,33.73
2022-11-09T03:52:18.266Z,34.20
2022-11-09T03:54:47.764Z,34.00
2022-11-09T03:57:17.638Z,33.27
2022-11-09T03:59:45.911Z,32.50
2022-11-09T04:02:14.223Z,34.53
2022-11-09T04:04:43.631Z,34.20
2022-11-09T04:07:12.710Z,34.87
2022-11-09T04:09:42.263Z,35.63
2022-11-09T04:12:10.319Z,34.53
2022-11-09T04:14:40.910Z,34.50
2022-11-09T04:17:09.368Z,33.17
2022-11-09T04:19:38.923Z,33.60
2022-11-09T04:22:07.374Z,33.07
2022-11-09T04:24:36.893Z,34.33
2022-11-09T04:27:05.506Z,35.20
2022-11-09T04:29:34.929Z,33.50
2022-11-09T04:32:07.019Z,34.30
2022-11-09T04:34:36.073Z,35.03
2022-11-09T04:37:04.331Z,33.03
2022-11-09T04:39:34.897Z,34.60
2022-11-09T04:42:03.126Z,35.33
2022-11-09T04:44:32.340Z,34.30
2022-11-09T04:47:07.228Z,33.90
2022-11-09T04:49:36.622Z,35.37
2022-11-09T04:52:05.646Z,34.00
2022-11-09T04:54:34.050Z,32.73
2022-11-09T04:57:02.223Z,36.20
2022-11-09T04:59:30.314Z,33.43
2022-11-09T05:02:00.479Z,33.77
2022-11-09T05:04:30.734Z,34.97
2022-11-09T05:07:00.906Z,34.53
2022-11-09T05:09:28.944Z,36.93
2022-11-09T05:12:01.477Z,36.83
2022-11-09T05:14:30.344Z,34.37
2022-11-09T05:17:00.422Z,35.57
2022-11-09T05:19:31.024Z,33.50
2022-11-09T05:22:22.662Z,35.80
2022-11-09T05:24:51.899Z,35.80
2022-11-09T05:27:21.344Z,36.57
2022-11-09T05:29:49.391Z,35.53
2022-11-09T05:32:18.585Z,36.30
2022-11-09T05:34:47.442Z,35.37
2022-11-09T05:37:20.324Z,34.47
2022-11-09T05:39:48.655Z,34.27
2022-11-09T05:42:18.196Z,36.17
2022-11-09T05:44:46.384Z,35.87
2022-11-09T05:47:15.626Z,35.07
2022-11-09T05:49:44.373Z,35.70
2022-11-09T05:52:16.005Z,32.03
2022-11-09T05:54:45.924Z,33.77
2022-11-09T05:57:15.781Z,35.93
2022-11-09T05:59:44.717Z,33.80
2022-11-09T06:02:14.434Z,33.60
2022-11-09T06:04:43.431Z,34.70
2022-11-09T06:07:21.749Z,34.43
2022-11-09T06:09:52.848Z,32.77
2022-11-09T06:12:21.134Z,33.67
2022-11-09T06:14:49.619Z,30.97
2022-11-09T06:17:18.874Z,32.83
2022-11-09T06:19:47.655Z,31.50
2022-11-09T06:22:18.084Z,30.40
2022-11-09T06:24:46.561Z,32.23
2022-11-09T06:27:17.579Z,30.17
2022-11-09T06:29:46.826Z,30.07
2022-11-09T06:32:16.083Z,31.00
2022-11-09T06:34:44.474Z,28.50
2022-11-09T06:37:13.837Z,31.50
2022-11-09T06:39:42.449Z,29.77
2022-11-09T06:42:11.582Z,29.50
2022-11-09T06:44:46.503Z,30.23
2022-11-09T06:47:16.262Z,28.37
2022-11-09T06:49:44.473Z,30.93
2022-11-09T06:52:13.766Z,28.97
2022-11-09T06:54:42.507Z,30.20
2022-11-09T06:57:12.251Z,28.23
2022-11-09T06:59:42.906Z,30.07
2022-11-09T07:02:16.642Z,31.37
2022-11-09T07:04:45.532Z,29.53
2022-11-09T07:07:14.865Z,31.10
2022-11-09T07:09:43.721Z,28.27
2022-11-09T07:12:13.008Z,28.67
2022-11-09T07:14:42.915Z,29.10
2022-11-09T07:17:12.272Z,30.17
2022-11-09T07:19:40.549Z,28.57
2022-11-09T07:22:09.977Z,28.30
2022-11-09T07:24:38.522Z,26.93
2022-11-09T07:27:08.090Z,26.97
2022-11-09T07:29:36.538Z,27.40
2022-11-09T07:32:11.638Z,27.23
2022-11-09T07:34:40.541Z,27.97
2022-11-09T07:37:09.694Z,24.97
2022-11-09T07:39:38.531Z,26.73
2022-11-09T07:42:08.111Z,25.67
2022-11-09T07:44:38.590Z,27.80
2022-11-09T07:47:08.347Z,29.30
2022-11-09T07:49:36.600Z,25.97
2022-11-09T07:52:06.082Z,26.67
2022-11-09T07:54:36.319Z,25.40
2022-11-09T07:57:05.492Z,27.13
2022-11-09T07:59:33.613Z,27.10
2022-11-09T08:02:03.361Z,27.23
2022-11-09T08:04:33.027Z,29.33
2022-11-09T08:07:02.334Z,26.50
2022-11-09T08:09:30.683Z,29.23
2022-11-09T08:12:04.802Z,27.80
2022-11-09T08:14:34.176Z,29.30
2022-11-09T08:17:02.217Z,28.57
2022-11-09T08:19:32.075Z,29.27
2022-11-09T08:22:04.365Z,28.87
2022-11-09T08:24:32.474Z,28.47
2022-11-09T08:27:01.895Z,29.70
2022-11-09T08:29:30.676Z,28.43
2022-11-09T08:32:00.696Z,29.97
2022-11-09T08:34:29.747Z,28.00
2022-11-09T08:37:05.522Z,28.67
2022-11-09T08:39:33.723Z,27.00
2022-11-09T08:42:04.967Z,28.47
2022-11-09T08:44:33.667Z,27.97
2022-11-09T08:47:03.194Z,27.07
2022-11-09T08:49:32.496Z,27.37
2022-11-09T08:52:03.177Z,25.80
2022-11-09T08:54:33.987Z,28.10
2022-11-09T08:57:04.414Z,27.90
2022-11-09T08:59:32.856Z,28.20
2022-11-09T09:02:04.698Z,27.43
2022-11-09T09:04:33.778Z,28.17
2022-11-09T09:07:08.565Z,25.50
2022-11-09T09:09:37.881Z,26.10
2022-11-09T09:12:08.064Z,26.93
2022-11-09T09:14:37.371Z,27.97
2022-11-09T09:17:06.823Z,25.90
2022-11-09T09:19:35.882Z,26.50
2022-11-09T09:22:07.620Z,24.90
2022-11-09T09:24:36.786Z,27.30
2022-11-09T09:27:05.885Z,26.60
2022-11-09T09:29:34.757Z,24.30
2022-11-09T09:32:03.183Z,24.40
2022-11-09T09:34:31.953Z,25.90
2022-11-09T09:37:03.987Z,25.73
2022-11-09T09:39:39.108Z,26.10
2022-11-09T09:42:09.828Z,24.20
2022-11-09T09:44:41.954Z,22.87
2022-11-09T09:47:15.824Z,24.40
2022-11-09T09:49:47.585Z,24.10
2022-11-09T09:52:22.883Z,24.10
2022-11-09T09:55:00.438Z,23.27
2022-11-09T09:57:30.507Z,22.00
2022-11-09T10:00:05.074Z,25.13
2022-11-09T10:02:41.023Z,23.67
2022-11-09T10:05:17.068Z,23.47
2022-11-09T10:07:49.940Z,22.33
2022-11-09T10:10:29.988Z,22.90
2022-11-09T10:13:22.956Z,21.97
2022-11-09T10:15:55.837Z,23.50
2022-11-09T10:18:38.364Z,22.97
2022-11-09T10:21:16.291Z,21.27
2022-11-09T10:23:57.016Z,24.30
2022-11-09T10:26:37.306Z,23.43
2022-11-09T10:29:20.334Z,22.97
2022-11-09T10:31:50.810Z,23.23
2022-11-09T10:34:21.418Z,22.97
2022-11-09T10:37:01.204Z,21.50
2022-11-09T10:39:41.026Z,21.67
2022-11-09T10:42:34.079Z,20.50
2022-11-09T10:45:29.654Z,21.90
2022-11-09T10:48:34.565Z,23.53
2022-11-09T10:51:36.592Z,21.77
2022-11-09T10:54:28.695Z,19.33
2022-11-09T10:57:19.774Z,19.70
2022-11-09T11:00:18.622Z,21.30
2022-11-09T11:03:12.765Z,21.77
2022-11-09T11:06:03.057Z,20.13
2022-11-09T11:08:52.067Z,20.73
2022-11-09T11:11:41.627Z,22.20
2022-11-09T11:14:33.243Z,18.53
2022-11-09T11:17:37.698Z,24.17
2022-11-09T11:20:32.301Z,20.13
2022-11-09T11:23:22.891Z,21.67
2022-11-09T11:26:25.034Z,21.40
2022-11-09T11:29:25.800Z,20.57
2022-11-09T11:32:16.684Z,21.70
2022-11-09T11:35:14.405Z,21.80
2022-11-09T11:38:13.119Z,23.63
2022-11-09T11:41:31.463Z,23.13
2022-11-09T11:44:40.778Z,22.20
2022-11-09T11:47:39.361Z,24.10
2022-11-09T11:50:41.770Z,22.67
2022-11-09T11:53:43.723Z,23.70
2022-11-09T11:56:35.361Z,22.73
2022-11-09T11:59:39.551Z,25.23
2022-11-09T12:02:41.978Z,23.53
2022-11-09T12:05:48.900Z,22.67
2022-11-09T12:08:46.201Z,22.43
2022-11-09T12:11:45.813Z,23.67
2022-11-09T12:14:43.270Z,25.63
2022-11-09T12:17:39.874Z,22.97
2022-11-09T12:20:33.661Z,23.27
2022-11-09T12:23:39.170Z,25.10
2022-11-09T12:26:40.286Z,24.17
2022-11-09T12:29:34.017Z,23.80
2022-11-09T12:32:33.243Z,24.83
2022-11-09T12:35:26.023Z,24.97
2022-11-09T12:38:19.546Z,24.20
2022-11-09T12:41:14.675Z,24.30
2022-11-09T12:44:07.700Z,24.60
2022-11-09T12:47:01.377Z,25.70
2022-11-09T12:49:49.398Z,25.27
2022-11-09T12:52:39.648Z,25.90
2022-11-09T12:55:32.132Z,23.50
2022-11-09T12:58:28.692Z,22.57
2022-11-09T13:01:47.069Z,24.07
2022-11-09T13:04:36.228Z,24.77
2022-11-09T13:07:44.507Z,25.80
2022-11-09T13:10:34.547Z,23.40
2022-11-09T13:13:26.022Z,22.60
2022-11-09T13:16:33.398Z,24.93
2022-11-09T13:19:52.536Z,23.80
2022-11-09T13:23:07.740Z,23.90
2022-11-09T13:25:55.756Z,24.37
2022-11-09T13:29:18.724Z,25.37
2022-11-09T13:32:26.732Z,24.37
2022-11-09T13:35:55.586Z,23.90
2022-11-09T13:38:42.427Z,23.37
2022-11-09T13:41:42.891Z,23.87
2022-11-09T13:44:34.539Z,24.53
2022-11-09T13:47:33.813Z,24.30
2022-11-09T13:50:23.605Z,23.10
2022-11-09T13:53:29.475Z,23.80
2022-11-09T13:56:27.151Z,23.63
2022-11-09T13:59:19.563Z,25.70
2022-11-09T14:02:17.425Z,25.60
2022-11-09T14:05:24.757Z,25.37
2022-11-09T14:08:20.722Z,24.53
2022-11-09T14:11:24.905Z,25.83
2022-11-09T14:14:35.353Z,25.50
2022-11-09T14:17:31.469Z,25.23
2022-11-09T14:20:28.782Z,24.70
2022-11-09T14:23:27.745Z,24.67
2022-11-09T14:26:18.829Z,25.60
2022-11-09T14:29:14.950Z,24.30
2022-11-09T14:32:03.619Z,25.40
2022-11-09T14:34:51.166Z,24.97
2022-11-09T14:37:45.983Z,24.47
2022-11-09T14:40:34.924Z,24.60
2022-11-09T14:43:29.319Z,24.30
2022-11-09T14:46:26.560Z,26.40
2022-11-09T14:49:15.644Z,24.80
2022-11-09T14:52:03.685Z,22.70
2022-11-09T14:54:55.235Z,24.67
2022-11-09T14:57:43.493Z,24.63
2022-11-09T15:00:34.202Z,25.27
2022-11-09T15:03:25.637Z,25.77
2022-11-09T15:06:15.247Z,24.20
2022-11-09T15:09:10.160Z,25.33
2022-11-09T15:12:03.399Z,24.70
2022-11-09T15:14:54.857Z,24.90
2022-11-09T15:17:47.103Z,25.87
2022-11-09T15:20:35.426Z,25.70
2022-11-09T15:23:26.340Z,25.97
2022-11-09T15:26:30.171Z,25.90
2022-11-09T15:29:37.724Z,28.97
2022-11-09T15:32:26.214Z,26.90
2022-11-09T15:35:22.823Z,24.03
2022-11-09T15:38:32.237Z,26.20
2022-11-09T15:41:21.064Z,26.63
2022-11-09T15:44:09.276Z,26.50
2022-11-09T15:47:01.544Z,27.57
2022-11-09T15:49:49.373Z,25.77
2022-11-09T15:52:38.632Z,26.10
2022-11-09T15:55:25.861Z,26.87
2022-11-09T15:58:24.176Z,27.70
2022-11-09T16:01:13.257Z,25.60
2022-11-09T16:04:03.834Z,27.63
2022-11-09T16:06:53.794Z,25.37
2022-11-09T16:09:43.913Z,26.00
2022-11-09T16:12:32.627Z,27.47
2022-11-09T16:15:19.928Z,27.63
2022-11-09T16:18:08.066Z,25.70
2022-11-09T16:20:58.554Z,25.73
2022-11-09T16:23:48.846Z,27.30
2022-11-09T16:26:38.154Z,28.47
2022-11-09T16:29:29.229Z,27.63
2022-11-09T16:32:17.221Z,26.93
2022-11-09T16:35:28.868Z,26.23
2022-11-09T16:38:18.635Z,27.70
2022-11-09T16:41:15.686Z,27.17
2022-11-09T16:44:05.085Z,27.47
2022-11-09T16:46:54.685Z,24.37
2022-11-09T16:49:47.182Z,25.90
2022-11-09T16:52:34.715Z,27.00
2022-11-09T16:55:23.869Z,28.90
2022-11-09T16:58:11.487Z,26.07
2022-11-09T17:01:11.427Z,26.73
2022-11-09T17:04:09.879Z,26.97
2022-11-09T17:07:15.348Z,23.13
2022-11-09T17:10:10.050Z,23.50
2022-11-09T17:13:11.363Z,24.80
2022-11-09T17:16:06.170Z,23.63
2022-11-09T17:18:56.668Z,22.87
2022-11-09T17:21:44.894Z,23.43
2022-11-09T17:24:35.906Z,22.97
2022-11-09T17:27:24.892Z,24.57
2022-11-09T17:30:24.753Z,26.57
2022-11-09T17:33:13.315Z,25.80
2022-11-09T17:36:11.652Z,26.97
2022-11-09T17:39:07.809Z,29.13
2022-11-09T17:42:05.128Z,26.87
2022-11-09T17:44:53.973Z,27.70
2022-11-09T17:47:46.304Z,31.30
2022-11-09T17:50:35.779Z,31.30
2022-11-09T17:53:24.093Z,33.47
2022-11-09T17:56:13.340Z,28.47
2022-11-09T17:59:06.155Z,27.33
2022-11-09T18:01:56.783Z,27.30
2022-11-09T18:04:48.393Z,27.53
2022-11-09T18:07:36.222Z,26.30
2022-11-09T18:10:24.320Z,25.40
2022-11-09T18:13:12.477Z,28.17
2022-11-09T18:16:12.180Z,26.50
2022-11-09T18:19:04.938Z,23.97
2022-11-09T18:21:55.810Z,24.60
2022-11-09T18:24:47.777Z,25.20
2022-11-09T18:27:36.349Z,26.60
2022-11-09T18:30:27.863Z,25.23
2022-11-09T18:33:16.928Z,25.53
2022-11-09T18:36:09.590Z,25.63
2022-11-09T18:39:03.867Z,26.70
2022-11-09T18:41:54.624Z,26.90
2022-11-09T18:45:00.372Z,27.80
2022-11-09T18:47:51.041Z,27.80
2022-11-09T18:50:40.395Z,27.37
2022-11-09T18:53:36.009Z,26.03
2022-11-09T18:56:38.827Z,28.13
2022-11-09T18:59:27.192Z,29.40
2022-11-09T19:02:19.718Z,31.13
2022-11-09T19:05:10.367Z,29.87
2022-11-09T19:08:02.284Z,31.80
2022-11-09T19:10:52.338Z,30.13
2022-11-09T19:13:43.762Z,28.47
2022-11-09T19:16:32.679Z,28.23
2022-11-09T19:19:31.656Z,26.43
2022-11-09T19:22:21.577Z,27.67
2022-11-09T19:25:12.022Z,30.70
2022-11-09T19:28:03.055Z,29.93
2022-11-09T19:31:06.425Z,27.70
2022-11-09T19:33:55.067Z,31.13
2022-11-09T19:36:46.484Z,29.93
2022-11-09T19:39:40.371Z,28.60
2022-11-09T19:42:31.536Z,29.70
2022-11-09T19:45:20.649Z,26.00
2022-11-09T19:48:11.668Z,26.23
2022-11-09T19:51:04.098Z,26.43
2022-11-09T19:53:53.396Z,29.70
2022-11-09T19:56:44.957Z,33.10
2022-11-09T19:59:35.405Z,31.63
2022-11-09T20:02:25.923Z,30.30
2022-11-09T20:05:18.969Z,31.30
2022-11-09T20:08:07.725Z,31.50
2022-11-09T20:10:58.605Z,28.27
2022-11-09T20:13:48.487Z,28.10
2022-11-09T20:16:37.912Z,27.83
2022-11-09T20:19:28.381Z,29.40
2022-11-09T20:22:19.407Z,31.40
2022-11-09T20:25:10.703Z,30.40
2022-11-09T20:28:04.106Z,32.90
2022-11-09T20:31:00.266Z,30.93
2022-11-09T20:33:53.196Z,30.23
2022-11-09T20:36:44.197Z,29.43
2022-11-09T20:39:35.762Z,28.93
2022-11-09T20:42:24.543Z,28.00
2022-11-09T20:45:15.886Z,30.77
2022-11-09T20:48:24.619Z,31.13
2022-11-09T20:51:18.471Z,30.40
2022-11-09T20:54:08.070Z,31.40
2022-11-09T20:57:05.134Z,30.60
2022-11-09T21:00:00.997Z,29.20
2022-11-09T21:02:50.476Z,29.70
2022-11-09T21:05:38.587Z,28.77
2022-11-09T21:08:31.454Z,28.13
2022-11-09T21:11:18.968Z,28.53
2022-11-09T21:14:11.872Z,29.30
2022-11-09T21:17:14.905Z,29.33
2022-11-09T21:20:08.670Z,28.20
2022-11-09T21:23:15.821Z,30.50
2022-11-09T21:26:22.317Z,31.47
2022-11-09T21:29:31.988Z,28.87
2022-11-09T21:32:20.517Z,29.93
2022-11-09T21:35:09.921Z,29.03
2022-11-09T21:38:02.199Z,29.77
2022-11-09T21:40:50.946Z,28.87
2022-11-09T21:43:40.139Z,29.87
2022-11-09T21:46:28.801Z,29.43
2022-11-09T21:49:16.584Z,30.00
2022-11-09T21:52:04.688Z,30.40
2022-11-09T21:54:53.133Z,29.10
2022-11-09T21:57:40.695Z,29.63
2022-11-09T22:00:27.705Z,30.87
2022-11-09T22:03:15.740Z,28.67
2022-11-09T22:06:05.565Z,26.23
2022-11-09T22:08:53.965Z,27.90
2022-11-09T22:12:00.974Z,25.57
2022-11-09T22:15:21.007Z,27.20
2022-11-09T22:18:07.482Z,28.90
2022-11-09T22:20:57.207Z,27.07
2022-11-09T22:23:44.831Z,24.83
2022-11-09T22:26:33.522Z,25.20
2022-11-09T22:29:21.247Z,26.03
2022-11-09T22:32:09.050Z,26.60
2022-11-09T22:35:01.141Z,24.80
2022-11-09T22:37:49.996Z,25.23
2022-11-09T22:40:37.780Z,25.93
2022-11-09T22:43:24.741Z,26.33
2022-11-09T22:46:13.857Z,25.80
2022-11-09T22:49:05.432Z,24.70
2022-11-09T22:51:53.442Z,26.23
2022-11-09T22:54:43.219Z,22.30
2022-11-09T22:57:33.366Z,23.47
2022-11-09T23:00:20.750Z,23.70
2022-11-09T23:03:08.351Z,24.20
2022-11-09T23:06:05.056Z,23.47
2022-11-09T23:08:52.659Z,22.63
2022-11-09T23:11:41.182Z,23.17
2022-11-09T23:14:42.507Z,22.70
2022-11-09T23:17:46.637Z,22.60
2022-11-09T23:20:35.924Z,23.17
2022-11-09T23:23:22.877Z,23.13
2022-11-09T23:26:13.009Z,23.33
2022-11-09T23:29:04.782Z,23.70
2022-11-09T23:31:52.936Z,22.93
2022-11-09T23:34:39.604Z,23.40
2022-11-09T23:37:27.494Z,23.00
2022-11-09T23:40:16.157Z,24.63
2022-11-09T23:43:03.400Z,24.20
2022-11-09T23:45:53.091Z,24.13
2022-11-09T23:48:41.587Z,24.07
2022-11-09T23:51:28.202Z,22.87
2022-11-09T23:54:14.785Z,24.70
2022-11-09T23:57:05.097Z,25.13
2022-11-09T23:59:51.600Z,24.00
